Inverurie, United Kingdom
Current Conditions -  °F | °C
As of 12:20 AM on Saturday 22 Nov 2014 (Local Time) from EGPD Reporting Station
Scattered Clouds Scattered Clouds  
Wind Chill: 41°   Ceiling: Unl
Heat Index: 48°   Visibility: 4mi
Dew Point: 45°   Wind: 23mph
Humidity: 87%   Direction: 140°SE
Pressure: 29.88"   Gusts: 35mph
Location:  57.28°N, 2.38°W
Report Text: EGPD 220020Z AUTO 14020G30KT 7000 FEW017/// SCT021/// 09/07 Q1012 RERA
Loading
Personal Weather Stations






























Interactive Weather Map New forecast layout! Learn more

10-Day Weather Forecast

Advertisements
Track Severe Weather on mobile